Time;durP1;ratioP1;P1;durP2;ratioP2;P2;SDS_P1;SDS_P2;PMS_P1;PMS_P2;Temp;Humidity;BMP_temperature;BMP_pressure;BME280_temperature;BME280_humidity;BME280_pressure;Samples;Min_cycle;Max_cycle;Signal;HPM_P1;HPM_P2
2022/08/03 00:01:24;;;;;;;3.13;2.50;;;;;;;23.40;54.36;93655.00;6129630;23;20032;-92
2022/08/03 00:03:49;;;;;;;3.28;2.20;;;;;;;23.42;54.49;93652.44;6151424;23;20522;-92
2022/08/03 00:06:15;;;;;;;2.50;2.28;;;;;;;23.40;54.31;93649.47;6097580;23;20459;-91
2022/08/03 00:08:40;;;;;;;3.13;2.45;;;;;;;23.39;54.49;93652.78;6115815;23;20033;-92
2022/08/03 00:11:06;;;;;;;2.60;2.00;;;;;;;23.42;54.54;93657.22;6077067;23;20014;-91
2022/08/03 00:13:32;;;;;;;3.10;2.03;;;;;;;23.38;54.63;93654.81;6075920;23;20018;-92
2022/08/03 00:15:57;;;;;;;2.42;2.22;;;;;;;23.42;54.22;93655.19;6075292;23;20072;-92
2022/08/03 00:18:23;;;;;;;2.25;2.05;;;;;;;23.42;54.50;93648.94;6062115;23;20034;-92
2022/08/03 00:20:48;;;;;;;2.53;2.30;;;;;;;23.36;54.51;93656.63;6042310;23;20034;-91
2022/08/03 00:23:14;;;;;;;2.88;2.13;;;;;;;23.39;54.68;93653.50;6040266;23;20321;-91
2022/08/03 00:25:40;;;;;;;2.30;2.10;;;;;;;23.39;54.45;93655.53;6038634;23;20524;-90
2022/08/03 00:28:07;;;;;;;2.95;2.42;;;;;;;23.41;54.62;93658.50;6017877;23;20155;-92
2022/08/03 00:30:32;;;;;;;2.08;1.85;;;;;;;23.41;54.57;93652.97;6016879;23;20066;-91
2022/08/03 00:32:59;;;;;;;3.03;2.20;;;;;;;23.36;54.40;93651.84;6010694;23;20149;-93
2022/08/03 00:35:24;;;;;;;2.85;2.33;;;;;;;23.38;54.52;93663.09;6008298;23;20063;-91
2022/08/03 00:37:50;;;;;;;2.55;2.13;;;;;;;23.37;54.72;93649.84;6012051;23;20342;-91
2022/08/03 00:40:15;;;;;;;2.97;2.38;;;;;;;23.37;54.35;93661.59;6041700;23;20026;-92
2022/08/03 00:42:49;;;;;;;2.15;1.95;;;;;;;23.40;54.49;93648.72;6012941;23;20018;-94
2022/08/03 00:45:15;;;;;;;2.63;2.00;;;;;;;23.41;54.41;93652.97;6042638;23;20081;-92
2022/08/03 00:47:40;;;;;;;2.97;2.08;;;;;;;23.39;54.55;93650.00;6040042;23;20018;-92
2022/08/03 00:50:08;;;;;;;2.17;1.98;;;;;;;23.38;54.49;93649.28;6088181;23;20196;-91
2022/08/03 00:52:34;;;;;;;2.55;1.90;;;;;;;23.40;54.19;93643.22;6098595;23;20483;-93
2022/08/03 00:55:00;;;;;;;1.98;1.77;;;;;;;23.38;54.26;93651.31;6074257;23;20022;-91
2022/08/03 00:57:27;;;;;;;2.95;2.00;;;;;;;23.40;54.25;93649.47;6075781;23;20352;-91
2022/08/03 00:59:53;;;;;;;2.13;1.90;;;;;;;23.41;54.43;93652.97;6074388;23;20021;-92
2022/08/03 01:02:18;;;;;;;2.50;1.75;;;;;;;23.42;54.32;93649.69;6095881;23;20355;-91
2022/08/03 01:04:44;;;;;;;2.13;1.90;;;;;;;23.38;54.52;93652.06;6074438;23;20022;-92
2022/08/03 01:07:22;;;;;;;2.03;1.73;;;;;;;23.37;54.44;93650.56;6077468;23;20459;-92
2022/08/03 01:09:56;;;;;;;2.40;1.98;;;;;;;23.38;54.44;93648.56;6118593;23;20022;-94
2022/08/03 01:12:35;;;;;;;2.00;1.67;;;;;;;23.37;54.25;93647.81;6124250;23;20072;-93
2022/08/03 01:15:14;;;;;;;2.45;1.83;;;;;;;23.36;54.36;93640.81;6122326;23;20017;-92
2022/08/03 01:17:48;;;;;;;2.20;2.00;;;;;;;23.37;54.30;93644.31;6099649;23;20025;-90
2022/08/03 01:20:15;;;;;;;2.13;1.67;;;;;;;23.34;54.49;93643.38;6100188;23;20239;-93
2022/08/03 01:22:55;;;;;;;2.60;2.08;;;;;;;23.35;54.35;93639.34;6099944;23;20145;-91
2022/08/03 01:25:59;;;;;;;1.85;1.67;;;;;;;23.35;54.50;93639.34;6099651;23;20025;-91
2022/08/03 01:28:36;;;;;;;2.35;1.63;;;;;;;23.34;54.31;93637.84;6148579;23;20030;-91
2022/08/03 01:31:04;;;;;;;1.85;1.48;;;;;;;23.40;54.29;93640.47;6147517;23;20507;-93
2022/08/03 01:33:44;;;;;;;2.47;1.60;;;;;;;23.35;54.35;93642.09;6098973;23;20033;-91
2022/08/03 01:36:12;;;;;;;2.30;1.80;;;;;;;23.41;54.27;93639.19;6069911;23;20024;-92
2022/08/03 01:38:50;;;;;;;2.08;1.65;;;;;;;23.41;54.00;93641.94;6074572;23;20028;-91
2022/08/03 01:41:32;;;;;;;2.40;1.70;;;;;;;23.39;54.24;93636.22;6075155;23;20012;-92
2022/08/03 01:44:00;;;;;;;1.98;1.75;;;;;;;23.40;54.05;93635.69;6098643;23;20028;-92
2022/08/03 01:46:26;;;;;;;2.03;1.58;;;;;;;23.41;54.16;93628.16;6098319;23;20063;-91
2022/08/03 01:48:51;;;;;;;1.95;1.55;;;;;;;23.40;54.43;93627.41;6094547;23;20021;-91
2022/08/03 01:51:18;;;;;;;1.98;1.63;;;;;;;23.43;53.94;93631.09;6097463;23;20024;-92
2022/08/03 01:53:43;;;;;;;2.15;1.38;;;;;;;23.44;54.12;93636.09;6098280;23;20033;-92
2022/08/03 01:56:09;;;;;;;2.03;1.73;;;;;;;23.41;53.91;93634.41;6099958;23;20010;-92
2022/08/03 01:58:35;;;;;;;3.00;1.80;;;;;;;23.38;54.25;93629.25;6098789;23;20013;-91
2022/08/03 02:01:01;;;;;;;2.70;1.98;;;;;;;23.37;54.22;93633.28;6073707;23;20096;-91
2022/08/03 02:03:28;;;;;;;2.90;1.40;;;;;;;23.32;54.51;93628.63;6074522;23;20096;-91
2022/08/03 02:05:55;;;;;;;1.98;1.70;;;;;;;23.35;54.19;93627.56;6098420;23;20018;-92
2022/08/03 02:08:20;;;;;;;1.70;1.52;;;;;;;23.33;54.21;93619.81;6076319;23;20044;-92
2022/08/03 02:10:46;;;;;;;1.45;1.30;;;;;;;23.36;54.07;93623.53;6071469;23;20448;-93
2022/08/03 02:13:11;;;;;;;2.10;1.55;;;;;;;23.33;54.51;93622.56;6098256;23;20060;-93
2022/08/03 02:15:37;;;;;;;1.95;1.63;;;;;;;23.39;54.00;93617.66;6099426;23;20021;-91
2022/08/03 02:18:04;;;;;;;1.83;1.45;;;;;;;23.33;54.28;93619.81;6076676;23;20065;-93
2022/08/03 02:20:31;;;;;;;1.73;1.33;;;;;;;23.35;54.02;93624.81;6100316;23;20062;-91
2022/08/03 02:22:57;;;;;;;1.73;1.50;;;;;;;23.34;54.04;93620.56;6072947;23;20529;-92
2022/08/03 02:25:22;;;;;;;1.85;1.40;;;;;;;23.35;54.11;93624.81;6075515;23;20040;-92
2022/08/03 02:27:51;;;;;;;2.47;1.52;;;;;;;23.37;54.13;93620.22;6098232;23;20013;-91
2022/08/03 02:30:17;;;;;;;2.53;1.90;;;;;;;23.36;54.01;93620.75;6074125;23;20365;-92
2022/08/03 02:32:43;;;;;;;1.77;1.40;;;;;;;23.32;54.19;93618.34;6074607;23;20021;-91
2022/08/03 02:35:11;;;;;;;1.65;1.35;;;;;;;23.37;53.90;93622.25;6068398;23;20077;-92
2022/08/03 02:37:41;;;;;;;3.22;1.45;;;;;;;23.32;54.08;93618.34;6099366;23;20018;-91
2022/08/03 02:40:07;;;;;;;2.03;1.55;;;;;;;23.34;54.15;93623.31;6075650;23;20017;-92
2022/08/03 02:42:32;;;;;;;1.73;1.42;;;;;;;23.36;54.01;93618.00;6073961;23;20574;-91
2022/08/03 02:44:59;;;;;;;1.42;1.33;;;;;;;23.35;54.05;93619.28;6072340;23;20021;-93
2022/08/03 02:47:26;;;;;;;2.00;1.40;;;;;;;23.35;54.31;93619.28;6076987;23;20037;-91
2022/08/03 02:49:51;;;;;;;1.85;1.30;;;;;;;23.36;54.09;93615.25;6070336;23;20029;-92
2022/08/03 02:52:17;;;;;;;1.75;1.30;;;;;;;23.33;54.01;93619.81;6077350;23;20020;-91
2022/08/03 02:54:43;;;;;;;1.73;1.38;;;;;;;23.32;54.17;93618.34;6072430;23;20097;-93
2022/08/03 02:57:08;;;;;;;1.55;1.20;;;;;;;23.36;54.07;93618.00;6100853;23;20101;-92
2022/08/03 02:59:34;;;;;;;2.65;1.30;;;;;;;23.37;53.96;93620.22;6077774;23;20033;-92
2022/08/03 03:01:59;;;;;;;1.73;1.20;;;;;;;23.34;53.97;93615.78;6073526;23;20026;-92
2022/08/03 03:04:25;;;;;;;2.28;1.60;;;;;;;23.38;54.18;93613.44;6077763;23;20024;-92
2022/08/03 03:06:50;;;;;;;1.45;1.13;;;;;;;23.36;53.80;93616.00;6097430;23;20097;-93
2022/08/03 03:09:16;;;;;;;1.45;1.30;;;;;;;23.32;54.08;93607.31;6093554;23;20013;-93
2022/08/03 03:11:42;;;;;;;1.85;1.45;;;;;;;23.36;54.07;93613.22;6156209;23;20032;-93
2022/08/03 03:14:08;;;;;;;1.48;1.25;;;;;;;23.30;54.05;93618.13;6105984;23;20507;-91
2022/08/03 03:16:33;;;;;;;1.60;1.10;;;;;;;23.35;53.91;93617.25;6102988;23;20495;-92
2022/08/03 03:18:59;;;;;;;2.20;1.60;;;;;;;23.33;54.01;93625.34;6129975;23;20013;-92
2022/08/03 03:21:24;;;;;;;2.10;1.45;;;;;;;23.37;53.90;93625.00;6101012;23;20340;-90
2022/08/03 03:23:51;;;;;;;1.40;1.30;;;;;;;23.30;54.06;93618.13;6107227;23;20072;-92
2022/08/03 03:26:18;;;;;;;1.15;1.05;;;;;;;23.30;53.94;93622.91;6104082;23;20064;-91
2022/08/03 03:28:43;;;;;;;1.83;1.20;;;;;;;23.34;54.12;93613.03;6107554;23;20347;-90
2022/08/03 03:31:10;;;;;;;1.60;1.20;;;;;;;23.34;53.66;93620.56;6153618;23;20021;-92
2022/08/03 03:33:36;;;;;;;1.35;1.15;;;;;;;23.29;54.10;93624.94;6128839;23;20025;-91
2022/08/03 03:36:01;;;;;;;1.33;1.10;;;;;;;23.38;53.85;93623.72;6100179;23;20009;-93
2022/08/03 03:38:27;;;;;;;1.30;1.10;;;;;;;23.35;53.91;93624.81;6106271;23;20017;-92
2022/08/03 03:40:53;;;;;;;1.48;1.35;;;;;;;23.38;53.66;93615.44;6155281;23;20027;-93
2022/08/03 03:43:18;;;;;;;1.63;1.30;;;;;;;23.30;53.92;93620.88;6108060;23;20017;-92
2022/08/03 03:45:44;;;;;;;1.50;1.20;;;;;;;23.32;53.89;93617.59;6097405;23;20040;-92
2022/08/03 03:48:10;;;;;;;1.25;1.10;;;;;;;23.34;53.99;93618.53;6154537;23;20023;-91
2022/08/03 03:50:36;;;;;;;1.40;1.30;;;;;;;23.33;53.66;93622.56;6115764;23;20498;-92
2022/08/03 03:53:03;;;;;;;1.58;1.42;;;;;;;23.30;54.13;93618.13;6103951;23;20041;-92
2022/08/03 03:55:29;;;;;;;2.35;1.50;;;;;;;23.32;53.97;93618.34;6126553;23;20021;-92
2022/08/03 03:57:55;;;;;;;1.85;1.38;;;;;;;23.34;53.81;93618.53;6103610;23;20059;-92
2022/08/03 04:00:21;;;;;;;1.67;1.00;;;;;;;23.32;53.66;93618.34;6102467;23;20036;-90
2022/08/03 04:02:49;;;;;;;1.80;1.23;;;;;;;23.31;53.89;93625.13;6103966;23;20017;-91
2022/08/03 04:11:12;;;;;;;1.33;1.00;;;;;;;23.32;53.86;93631.38;6138340;23;20028;-92
2022/08/03 04:13:41;;;;;;;1.63;1.20;;;;;;;23.42;53.73;93632.38;6180750;23;20197;-91
2022/08/03 04:16:07;;;;;;;1.30;1.08;;;;;;;23.42;53.30;93635.16;6127085;23;20028;-93
2022/08/03 04:18:33;;;;;;;2.13;1.30;;;;;;;23.37;53.57;93633.28;6104059;23;20052;-92
2022/08/03 04:21:02;;;;;;;1.15;1.05;;;;;;;23.41;53.45;93639.19;6103670;23;20009;-91
2022/08/03 04:23:27;;;;;;;1.63;1.17;;;;;;;23.49;53.15;93632.47;6105488;23;20095;-91
2022/08/03 04:25:53;;;;;;;1.67;1.15;;;;;;;23.53;53.35;93635.66;6118337;23;20047;-91
2022/08/03 04:28:19;;;;;;;1.58;1.02;;;;;;;23.56;53.24;93636.59;6129388;23;20048;-91
2022/08/03 04:30:47;;;;;;;1.10;1.00;;;;;;;23.56;53.27;93636.59;6105763;23;20047;-90
2022/08/03 04:33:16;;;;;;;1.25;1.00;;;;;;;23.58;53.01;93636.81;6128786;23;20017;-92
2022/08/03 04:35:43;;;;;;;1.30;0.90;;;;;;;23.57;53.16;93638.09;6108322;23;20021;-91
2022/08/03 04:38:09;;;;;;;1.35;1.20;;;;;;;23.62;52.76;93641.97;6107580;23;20017;-92
2022/08/03 04:40:38;;;;;;;1.55;1.23;;;;;;;23.61;53.00;93649.50;6130306;23;20025;-92
2022/08/03 04:43:04;;;;;;;88.63;79.35;;;;;;;23.56;52.79;93642.13;6110137;23;20080;-91
2022/08/03 04:45:30;;;;;;;15.65;12.30;;;;;;;23.56;52.76;93640.09;6131283;23;20036;-91
2022/08/03 04:47:57;;;;;;;48.45;42.78;;;;;;;23.57;53.02;93649.13;6110753;23;20452;-93
2022/08/03 04:50:31;;;;;;;6.68;4.57;;;;;;;23.50;52.80;93647.00;6109148;23;20032;-93
2022/08/03 04:52:57;;;;;;;5.43;3.97;;;;;;;23.34;51.80;93651.66;6109589;23;20079;-94
2022/08/03 04:55:31;;;;;;;4.38;3.30;;;;;;;23.17;52.10;93651.28;6133279;23;20028;-91
2022/08/03 04:57:57;;;;;;;36.15;8.77;;;;;;;23.17;52.10;93648.50;6103562;23;20021;-90
2022/08/03 05:00:23;;;;;;;36.15;11.10;;;;;;;23.13;52.56;93651.63;6107219;23;20369;-91
2022/08/03 05:02:50;;;;;;;33.00;10.80;;;;;;;23.17;52.40;93651.28;6105703;23;20016;-92
2022/08/03 05:05:17;;;;;;;38.95;10.43;;;;;;;23.19;52.27;93645.97;6111526;23;20017;-93
2022/08/03 05:07:43;;;;;;;34.85;10.65;;;;;;;23.19;52.33;93654.97;6143916;23;20063;-90
2022/08/03 05:10:09;;;;;;;27.45;9.30;;;;;;;23.17;52.70;93649.25;6149121;23;20100;-93
2022/08/03 05:12:35;;;;;;;29.67;10.70;;;;;;;23.18;52.57;93647.97;6079537;23;20026;-92
2022/08/03 05:15:01;;;;;;;32.97;12.00;;;;;;;23.28;52.48;93650.28;6080177;23;20021;-93
2022/08/03 05:17:27;;;;;;;24.55;10.20;;;;;;;23.28;52.20;93648.28;6102959;23;20100;-93
2022/08/03 05:19:53;;;;;;;21.77;9.10;;;;;;;23.26;52.49;93650.81;6075260;23;20078;-91
2022/08/03 05:22:20;;;;;;;18.58;9.15;;;;;;;23.27;52.66;93652.31;6129077;23;20017;-93
2022/08/03 05:24:48;;;;;;;31.38;11.05;;;;;;;23.25;52.40;93652.84;6075767;23;20025;-92
2022/08/03 05:27:18;;;;;;;18.77;8.73;;;;;;;23.26;52.39;93648.06;6080267;23;20025;-93
2022/08/03 05:29:44;;;;;;;26.92;9.25;;;;;;;23.18;52.31;93650.75;6076432;23;20613;-93
2022/08/03 05:32:10;;;;;;;24.08;9.98;;;;;;;23.23;52.31;93652.63;6081680;23;20017;-94
2022/08/03 05:34:35;;;;;;;29.00;9.40;;;;;;;23.22;52.36;93653.91;6080821;23;20045;-92
2022/08/03 05:37:11;;;;;;;34.05;9.65;;;;;;;23.29;52.19;93646.25;6075851;23;20049;-92
2022/08/03 05:39:37;;;;;;;31.25;11.10;;;;;;;23.27;52.40;93646.78;6104426;23;20021;-93
2022/08/03 05:42:02;;;;;;;22.52;9.55;;;;;;;23.30;52.51;93653.25;6073098;23;20027;-92
2022/08/03 05:44:30;;;;;;;17.35;6.70;;;;;;;23.34;53.22;93657.16;6081779;23;20129;-91
2022/08/03 05:46:57;;;;;;;12.13;5.45;;;;;;;23.25;54.10;93652.09;6080592;23;20029;-91
2022/08/03 05:49:23;;;;;;;10.25;5.00;;;;;;;23.14;53.41;93653.09;6083948;23;20014;-91
2022/08/03 05:51:49;;;;;;;11.77;5.75;;;;;;;23.18;52.96;93645.22;6080460;23;20020;-90
2022/08/03 05:54:16;;;;;;;19.50;7.40;;;;;;;23.15;53.20;93651.09;6126948;23;20018;-93
2022/08/03 05:57:03;;;;;;;;;;;;;;;;;;;;;
2022/08/03 05:59:31;;;;;;;13.02;6.10;;;;;;;23.21;52.19;93657.19;6098979;23;20117;-93
2022/08/03 06:01:56;;;;;;;43.33;9.10;;;;;;;23.13;52.06;93656.41;6042810;23;20110;-91
2022/08/03 06:04:23;;;;;;;33.03;6.50;;;;;;;23.19;52.46;93651.47;6124741;23;20049;-93
2022/08/03 06:06:49;;;;;;;25.15;7.57;;;;;;;23.14;52.43;93646.84;6053127;23;20025;-92
2022/08/03 06:09:15;;;;;;;22.83;8.50;;;;;;;23.18;52.29;93655.50;6061984;23;20037;-92
2022/08/03 06:11:41;;;;;;;33.88;10.73;;;;;;;23.28;52.31;93651.03;6052477;23;20015;-89
2022/08/03 06:14:07;;;;;;;20.75;8.82;;;;;;;23.36;52.27;93642.84;6079075;23;20024;-93
2022/08/03 06:16:49;;;;;;;15.10;7.60;;;;;;;23.38;52.09;93652.06;6057390;23;20014;-91
2022/08/03 06:19:14;;;;;;;188.15;167.57;;;;;;;23.40;52.07;93648.72;6072544;23;20018;-91
2022/08/03 06:21:40;;;;;;;784.30;701.38;;;;;;;23.50;52.45;93650.50;6067377;23;20069;-92
2022/08/03 06:24:06;;;;;;;267.95;223.52;;;;;;;23.47;52.03;93659.09;6076396;23;20021;-92
2022/08/03 06:26:32;;;;;;;87.43;67.72;;;;;;;23.60;52.02;93647.31;6075758;23;20014;-92
2022/08/03 06:28:59;;;;;;;23.55;17.75;;;;;;;23.58;51.66;93654.09;6069699;23;20025;-93
2022/08/03 06:31:26;;;;;;;29.50;19.58;;;;;;;23.60;51.64;93650.06;6096981;23;20022;-93
2022/08/03 06:33:52;;;;;;;26.55;18.90;;;;;;;23.61;51.65;93657.78;6072697;23;20021;-92
2022/08/03 06:36:17;;;;;;;30.48;19.33;;;;;;;23.54;51.82;93653.69;6072688;23;20053;-92
2022/08/03 06:38:43;;;;;;;50.63;21.48;;;;;;;23.56;51.75;93661.44;6056470;23;20532;-93
2022/08/03 06:41:09;;;;;;;45.20;21.05;;;;;;;23.54;52.10;93659.22;6102174;23;20010;-94
2022/08/03 06:43:37;;;;;;;42.58;20.95;;;;;;;23.61;51.77;93666.06;6133110;23;20571;-95
2022/08/03 06:46:04;;;;;;;40.58;22.17;;;;;;;23.54;51.92;93664.72;6109302;23;20037;-94
2022/08/03 06:48:30;;;;;;;49.38;24.52;;;;;;;23.60;52.04;93667.34;6102893;23;20009;-92
2022/08/03 06:50:55;;;;;;;44.97;23.20;;;;;;;23.62;52.39;93672.31;6111912;23;20017;-93
2022/08/03 06:53:22;;;;;;;48.75;22.70;;;;;;;23.62;52.13;93664.03;6133177;23;20017;-92
2022/08/03 06:55:47;;;;;;;50.33;24.23;;;;;;;23.65;52.34;93674.75;6094414;23;20021;-93
2022/08/03 06:58:16;;;;;;;51.55;23.10;;;;;;;23.66;52.19;93675.50;6133509;23;20451;-93
2022/08/03 07:00:42;;;;;;;63.45;26.42;;;;;;;23.66;52.59;93667.22;6104686;23;20017;-92
2022/08/03 07:03:07;;;;;;;76.20;29.27;;;;;;;23.65;52.43;93674.00;6099602;23;20028;-92
2022/08/03 07:05:34;;;;;;;54.15;30.58;;;;;;;23.62;52.42;93675.81;6102378;23;20021;-92
2022/08/03 07:08:01;;;;;;;52.55;27.55;;;;;;;23.71;52.74;93672.59;6098745;23;20017;-93
2022/08/03 07:10:27;;;;;;;80.30;31.48;;;;;;;23.72;52.48;93676.09;6106192;23;20056;-93
2022/08/03 07:12:53;;;;;;;57.47;27.60;;;;;;;23.74;52.68;93670.78;6139861;23;20032;-94
2022/08/03 07:15:22;;;;;;;51.05;25.05;;;;;;;23.70;52.92;93667.63;6120644;23;20021;-93
2022/08/03 07:17:47;;;;;;;42.90;22.92;;;;;;;23.69;53.13;93679.94;6106892;23;20025;-93
2022/08/03 07:20:17;;;;;;;47.40;22.33;;;;;;;23.74;52.90;93674.28;6107080;23;20026;-94
2022/08/03 07:22:43;;;;;;;46.35;25.45;;;;;;;23.74;53.13;93676.31;6094367;23;20017;-93
2022/08/03 07:25:12;;;;;;;42.83;24.00;;;;;;;23.78;53.13;93676.72;6095055;23;20092;-93
2022/08/03 07:27:37;;;;;;;42.22;22.42;;;;;;;23.74;53.44;93681.81;6095723;23;20021;-94
2022/08/03 07:30:07;;;;;;;36.80;20.20;;;;;;;23.73;53.66;93675.56;6086581;23;20020;-94
2022/08/03 07:32:35;;;;;;;32.72;20.25;;;;;;;23.77;53.48;93669.72;6121297;23;20013;-93
2022/08/03 07:35:16;;;;;;;30.58;18.30;;;;;;;23.76;53.61;93676.50;6053638;23;20376;-92
2022/08/03 07:37:42;;;;;;;35.13;18.92;;;;;;;23.82;53.41;93666.78;6097286;23;20294;-92
2022/08/03 07:40:21;;;;;;;47.20;20.98;;;;;;;23.78;53.52;93673.94;6093689;23;20020;-95
2022/08/03 07:43:23;;;;;;;29.55;18.80;;;;;;;23.78;53.75;93669.16;6103955;23;20014;-95
2022/08/03 07:46:00;;;;;;;45.13;24.10;;;;;;;23.80;53.63;93677.66;6062228;23;20021;-94
2022/08/03 07:48:28;;;;;;;126.68;41.30;;;;;;;23.78;53.72;93673.94;6102321;23;20025;-96
2022/08/03 07:50:54;;;;;;;56.50;28.38;;;;;;;23.81;53.60;93668.09;6065572;23;20018;-94
2022/08/03 07:53:25;;;;;;;145.18;43.47;;;;;;;23.79;53.86;93665.13;6087278;23;20034;-95
2022/08/03 07:55:50;;;;;;;88.32;36.42;;;;;;;23.81;53.68;93676.38;6116820;23;20438;-94
2022/08/03 07:58:47;;;;;;;89.97;30.17;;;;;;;23.83;53.88;93675.81;6103752;23;20018;-93
2022/08/03 08:01:18;;;;;;;81.97;29.75;;;;;;;23.83;53.90;93670.28;6058357;23;20022;-93
2022/08/03 08:03:45;;;;;;;50.67;22.80;;;;;;;23.82;53.93;93677.09;6072610;23;20073;-95
2022/08/03 08:06:20;;;;;;;68.88;36.70;;;;;;;23.82;54.22;93669.53;6049832;23;20427;-94
2022/08/03 08:08:45;;;;;;;90.40;36.67;;;;;;;23.87;54.13;93685.22;6044579;23;20021;-93
2022/08/03 08:11:13;;;;;;;73.28;36.50;;;;;;;23.82;54.01;93675.06;6092709;23;20018;-95
2022/08/03 08:13:39;;;;;;;73.57;33.92;;;;;;;23.85;54.21;93676.75;6085389;23;20009;-93
2022/08/03 08:16:04;;;;;;;69.20;30.30;;;;;;;23.89;54.02;93676.41;6104351;23;20078;-94
2022/08/03 08:18:31;;;;;;;78.45;36.75;;;;;;;23.86;54.01;93672.72;6113704;23;20010;-94
2022/08/03 08:20:57;;;;;;;71.80;34.03;;;;;;;23.89;54.10;93671.63;6110569;23;20022;-93
2022/08/03 08:23:22;;;;;;;96.85;49.38;;;;;;;23.87;54.50;93673.44;6085629;23;20053;-93
2022/08/03 08:25:52;;;;;;;70.90;35.03;;;;;;;23.87;54.00;93676.22;6072579;23;20018;-94
2022/08/03 08:28:57;;;;;;;;;;;;;;;;;;;;;
2022/08/03 08:31:23;;;;;;;108.95;30.77;;;;;;;23.89;54.19;93668.13;5954396;23;20387;-93
2022/08/03 08:33:49;;;;;;;70.57;24.08;;;;;;;23.90;54.07;93680.66;6019836;23;20501;-94
2022/08/03 08:36:17;;;;;;;104.95;27.65;;;;;;;23.87;54.38;93679.72;6065685;23;20160;-93
2022/08/03 08:39:14;;;;;;;204.27;42.10;;;;;;;23.88;54.13;93678.44;6065990;23;20484;-95
2022/08/03 08:41:39;;;;;;;263.85;45.08;;;;;;;23.94;54.24;93683.81;6073192;23;20069;-93
2022/08/03 08:44:07;;;;;;;154.05;35.53;;;;;;;23.89;54.37;93676.41;6071309;23;20025;-93
2022/08/03 08:46:32;;;;;;;76.20;23.05;;;;;;;23.91;54.18;93682.88;6072870;23;20022;-92
2022/08/03 08:49:00;;;;;;;112.45;30.10;;;;;;;23.91;54.23;93685.63;6071513;23;20021;-92
2022/08/03 08:51:36;;;;;;;96.30;28.38;;;;;;;23.91;54.24;93676.63;6074226;23;20490;-93
2022/08/03 08:54:02;;;;;;;98.18;28.67;;;;;;;23.93;54.08;93677.56;6075519;23;20018;-93
2022/08/03 08:56:34;;;;;;;136.00;32.22;;;;;;;23.90;54.13;93673.13;6085694;23;20022;-93
2022/08/03 08:59:02;;;;;;;128.65;39.65;;;;;;;23.93;53.87;93674.78;6062228;23;20068;-92
2022/08/03 09:01:28;;;;;;;112.95;49.70;;;;;;;23.95;54.16;93676.28;6044725;23;20006;-93
2022/08/03 09:04:29;;;;;;;103.38;26.08;;;;;;;23.90;53.89;93669.63;6067158;23;20013;-96
2022/08/03 09:06:55;;;;;;;84.60;23.02;;;;;;;23.97;53.79;93679.97;6060118;23;20014;-91
2022/08/03 09:09:41;;;;;;;69.60;22.33;;;;;;;23.88;54.18;93670.16;6047653;23;20783;-93
2022/08/03 09:12:07;;;;;;;72.15;30.90;;;;;;;23.96;54.23;93672.25;6074495;23;20094;-94
2022/08/03 09:15:43;;;;;;;66.22;24.58;;;;;;;23.92;53.84;93676.06;6055956;23;20022;-94
2022/08/03 09:18:09;;;;;;;72.32;27.80;;;;;;;23.96;53.95;93681.25;6033608;23;20022;-95
2022/08/03 09:20:38;;;;;;;79.28;42.03;;;;;;;23.99;54.11;93666.38;6014310;23;20031;-93
2022/08/03 09:23:09;;;;;;;109.07;59.03;;;;;;;23.93;54.22;93674.06;6011654;23;20026;-94
2022/08/03 09:25:36;;;;;;;75.88;40.53;;;;;;;23.99;53.97;93669.13;6024896;23;20064;-92
2022/08/03 09:28:10;;;;;;;79.30;42.08;;;;;;;23.98;53.71;93677.97;6040231;23;20042;-94
2022/08/03 09:30:39;;;;;;;85.65;43.08;;;;;;;24.01;53.89;93669.34;6066727;23;20076;-92
2022/08/03 09:33:18;;;;;;;289.60;54.63;;;;;;;24.02;53.75;93664.56;6023508;23;20823;-93
2022/08/03 09:35:47;;;;;;;81.20;42.63;;;;;;;24.02;53.98;93667.31;6034526;23;20027;-92
2022/08/03 09:38:26;;;;;;;98.80;46.10;;;;;;;24.01;53.80;93672.09;6038699;23;20098;-92
2022/08/03 09:40:51;;;;;;;84.80;47.67;;;;;;;24.03;53.80;93668.78;6052551;23;20050;-90
2022/08/03 09:43:18;;;;;;;87.25;46.85;;;;;;;24.03;53.62;93669.53;5989540;23;20080;-91
2022/08/03 09:45:43;;;;;;;85.72;42.33;;;;;;;24.05;53.54;93666.94;6060706;23;20021;-92
2022/08/03 09:48:25;;;;;;;83.40;41.40;;;;;;;24.02;53.78;93670.81;6104599;23;20017;-91
2022/08/03 09:50:52;;;;;;;86.63;42.58;;;;;;;24.08;53.51;93665.88;6129753;23;20056;-92
2022/08/03 09:53:18;;;;;;;79.72;45.95;;;;;;;24.07;53.48;93672.69;6107174;23;20021;-90
2022/08/03 09:55:51;;;;;;;73.07;46.35;;;;;;;24.06;53.88;93667.69;6105650;23;20241;-90
2022/08/03 09:58:16;;;;;;;100.35;46.80;;;;;;;24.10;53.28;93674.34;6127982;23;20500;-92
2022/08/03 10:00:57;;;;;;;100.15;47.03;;;;;;;24.03;53.61;93669.53;6104467;23;20044;-92
2022/08/03 10:03:23;;;;;;;107.20;47.22;;;;;;;24.09;53.82;93675.63;6091205;23;20080;-93
2022/08/03 10:05:49;;;;;;;119.05;47.97;;;;;;;24.11;53.71;93675.84;6127245;23;20017;-93
2022/08/03 10:08:15;;;;;;;115.72;47.30;;;;;;;24.10;53.67;93673.63;6101914;23;20028;-93
2022/08/03 10:10:42;;;;;;;90.95;42.55;;;;;;;24.08;53.46;93665.88;6106946;23;20049;-91
2022/08/03 10:13:09;;;;;;;67.00;38.63;;;;;;;24.09;53.58;93663.84;6105556;23;20034;-91
2022/08/03 10:15:34;;;;;;;71.82;38.70;;;;;;;24.11;53.69;93680.63;6105594;23;20024;-91
2022/08/03 10:18:00;;;;;;;76.88;39.30;;;;;;;24.10;53.59;93665.34;6119533;23;20029;-94
2022/08/03 10:20:25;;;;;;;80.10;36.72;;;;;;;24.13;53.51;93667.75;6098442;23;20045;-92
2022/08/03 10:22:50;;;;;;;55.63;33.40;;;;;;;24.13;53.55;93667.75;6103567;23;20017;-93
2022/08/03 10:25:16;;;;;;;58.53;33.35;;;;;;;24.11;53.68;93661.28;6100464;23;20027;-92
2022/08/03 10:27:42;;;;;;;58.20;32.85;;;;;;;24.13;53.60;93661.50;6103362;23;20017;-92
2022/08/03 10:30:10;;;;;;;110.93;35.40;;;;;;;24.10;53.98;93659.81;6104306;23;20048;-91
2022/08/03 10:32:48;;;;;;;163.20;121.13;;;;;;;24.10;53.81;93660.53;6110185;23;20021;-92
2022/08/03 10:35:18;;;;;;;294.23;254.55;;;;;;;24.16;53.59;93660.41;6156695;23;20021;-93
2022/08/03 10:37:55;;;;;;;92.25;56.20;;;;;;;24.14;53.91;93649.91;6108291;23;20025;-92
2022/08/03 10:40:21;;;;;;;49.92;29.55;;;;;;;24.19;53.14;93656.56;6105080;23;20013;-92
2022/08/03 10:42:46;;;;;;;108.93;82.05;;;;;;;24.14;54.34;93660.94;6130907;23;20029;-92
2022/08/03 10:45:19;;;;;;;76.53;47.75;;;;;;;24.16;53.65;93655.63;6135609;23;20005;-91
2022/08/03 10:47:48;;;;;;;112.55;86.75;;;;;;;24.15;53.60;93662.44;6110638;23;20017;-93
2022/08/03 10:50:14;;;;;;;68.13;42.40;;;;;;;24.16;53.37;93663.16;6130214;23;20013;-92
2022/08/03 10:53:06;;;;;;;50.10;30.50;;;;;;;24.12;53.49;93660.00;6105825;23;20017;-93
2022/08/03 10:58:36;;;;;;;42.00;26.33;;;;;;;24.12;53.55;93652.47;6157651;23;20024;-93
2022/08/03 11:01:09;;;;;;;48.58;27.13;;;;;;;24.14;53.35;93643.63;6152478;23;20368;-92
2022/08/03 11:03:54;;;;;;;48.15;28.67;;;;;;;24.12;53.55;93646.94;6088288;23;20453;-92
2022/08/03 11:06:24;;;;;;;48.47;26.48;;;;;;;24.15;53.49;93647.88;6148728;23;20025;-95
2022/08/03 11:09:08;;;;;;;;;;;;;;;24.10;53.57;93648.75;6109594;23;20060;-91
2022/08/03 11:11:34;;;;;;;47.35;27.98;;;;;;;24.14;53.63;93640.88;6150761;23;20016;-92
2022/08/03 11:14:06;;;;;;;49.25;29.77;;;;;;;24.14;53.44;93647.13;6104005;23;20017;-92
2022/08/03 11:16:48;;;;;;;60.08;31.90;;;;;;;24.16;53.36;93649.34;6108450;23;20100;-91
2022/08/03 11:19:26;;;;;;;57.42;29.85;;;;;;;24.15;53.38;93636.81;6092231;23;20548;-91
2022/08/03 11:22:03;;;;;;;60.78;27.85;;;;;;;24.13;53.26;93645.66;6095635;23;20022;-92
2022/08/03 11:24:50;;;;;;;56.97;28.67;;;;;;;24.13;53.44;93648.41;6093161;23;20021;-90
2022/08/03 11:27:34;;;;;;;55.38;29.00;;;;;;;24.14;53.32;93651.91;6178919;23;20017;-93
2022/08/03 11:30:06;;;;;;;55.03;27.95;;;;;;;24.15;53.19;93648.63;6105536;23;20592;-92
2022/08/03 11:32:43;;;;;;;59.05;33.88;;;;;;;24.14;53.40;93638.09;6129288;23;20016;-92
2022/08/03 11:35:20;;;;;;;81.22;44.15;;;;;;;24.17;53.59;93646.06;6149809;23;20013;-90
2022/08/03 11:37:55;;;;;;;143.07;73.05;;;;;;;24.22;53.16;93638.91;6105321;23;20051;-93
2022/08/03 11:40:36;;;;;;;202.50;91.40;;;;;;;24.22;53.17;93628.59;6148847;23;20338;-90
2022/08/03 11:43:26;;;;;;;208.35;83.90;;;;;;;24.27;53.10;93643.53;6153501;23;20024;-93
2022/08/03 11:45:57;;;;;;;149.23;70.90;;;;;;;24.30;52.97;93641.72;6098768;23;20022;-91